sensor_id;sensor_type;location;lat;lon;timestamp;P1;durP1;ratioP1;P2;durP2;ratioP2
5981;SDS011;3018;48.730;9.336;2023-12-20T00:00:08;1.40;;;1.40;;
5981;SDS011;3018;48.730;9.336;2023-12-20T00:02:35;1.30;;;1.20;;
5981;SDS011;3018;48.730;9.336;2023-12-20T00:05:02;1.77;;;1.33;;
5981;SDS011;3018;48.730;9.336;2023-12-20T00:07:29;1.17;;;1.17;;
5981;SDS011;3018;48.730;9.336;2023-12-20T00:09:55;1.20;;;1.20;;
5981;SDS011;3018;48.730;9.336;2023-12-20T00:12:21;2.05;;;1.23;;
5981;SDS011;3018;48.730;9.336;2023-12-20T00:14:47;1.20;;;1.20;;
5981;SDS011;3018;48.730;9.336;2023-12-20T00:17:14;0.98;;;0.98;;
5981;SDS011;3018;48.730;9.336;2023-12-20T00:19:40;0.90;;;0.90;;
5981;SDS011;3018;48.730;9.336;2023-12-20T00:22:08;1.20;;;1.20;;
5981;SDS011;3018;48.730;9.336;2023-12-20T00:24:34;1.20;;;1.20;;
5981;SDS011;3018;48.730;9.336;2023-12-20T00:27:00;0.90;;;0.90;;
5981;SDS011;3018;48.730;9.336;2023-12-20T00:29:27;0.82;;;0.82;;
5981;SDS011;3018;48.730;9.336;2023-12-20T00:31:53;1.00;;;1.00;;
5981;SDS011;3018;48.730;9.336;2023-12-20T00:34:19;0.98;;;0.98;;
5981;SDS011;3018;48.730;9.336;2023-12-20T00:36:46;0.80;;;0.80;;
5981;SDS011;3018;48.730;9.336;2023-12-20T00:39:13;0.77;;;0.77;;
5981;SDS011;3018;48.730;9.336;2023-12-20T00:41:40;0.90;;;0.90;;
5981;SDS011;3018;48.730;9.336;2023-12-20T00:44:06;0.80;;;0.80;;
5981;SDS011;3018;48.730;9.336;2023-12-20T00:46:32;0.93;;;0.93;;
5981;SDS011;3018;48.730;9.336;2023-12-20T00:48:58;1.10;;;1.10;;
5981;SDS011;3018;48.730;9.336;2023-12-20T00:51:25;2.50;;;1.02;;
5981;SDS011;3018;48.730;9.336;2023-12-20T00:53:51;1.75;;;0.82;;
5981;SDS011;3018;48.730;9.336;2023-12-20T00:56:21;0.90;;;0.90;;
5981;SDS011;3018;48.730;9.336;2023-12-20T00:58:47;1.75;;;0.93;;
5981;SDS011;3018;48.730;9.336;2023-12-20T01:01:13;1.15;;;1.15;;
5981;SDS011;3018;48.730;9.336;2023-12-20T01:03:39;1.05;;;1.05;;
5981;SDS011;3018;48.730;9.336;2023-12-20T01:06:06;1.15;;;1.13;;
5981;SDS011;3018;48.730;9.336;2023-12-20T01:08:32;1.15;;;1.15;;
5981;SDS011;3018;48.730;9.336;2023-12-20T01:11:00;1.13;;;1.02;;
5981;SDS011;3018;48.730;9.336;2023-12-20T01:13:27;1.00;;;1.00;;
5981;SDS011;3018;48.730;9.336;2023-12-20T01:15:52;0.90;;;0.90;;
5981;SDS011;3018;48.730;9.336;2023-12-20T01:18:19;1.90;;;0.95;;
5981;SDS011;3018;48.730;9.336;2023-12-20T01:20:45;1.08;;;1.00;;
5981;SDS011;3018;48.730;9.336;2023-12-20T01:23:11;1.58;;;1.30;;
5981;SDS011;3018;48.730;9.336;2023-12-20T01:25:37;1.52;;;1.42;;
5981;SDS011;3018;48.730;9.336;2023-12-20T01:28:04;1.38;;;1.30;;
5981;SDS011;3018;48.730;9.336;2023-12-20T01:30:31;1.38;;;1.38;;
5981;SDS011;3018;48.730;9.336;2023-12-20T01:32:59;1.52;;;1.30;;
5981;SDS011;3018;48.730;9.336;2023-12-20T01:35:25;1.08;;;1.02;;
5981;SDS011;3018;48.730;9.336;2023-12-20T01:37:51;1.02;;;0.90;;
5981;SDS011;3018;48.730;9.336;2023-12-20T01:40:21;1.13;;;1.13;;
5981;SDS011;3018;48.730;9.336;2023-12-20T01:42:47;1.60;;;1.50;;
5981;SDS011;3018;48.730;9.336;2023-12-20T01:45:14;1.38;;;0.93;;
5981;SDS011;3018;48.730;9.336;2023-12-20T01:47:41;1.05;;;0.90;;
5981;SDS011;3018;48.730;9.336;2023-12-20T01:50:08;1.08;;;0.90;;
5981;SDS011;3018;48.730;9.336;2023-12-20T01:52:34;0.93;;;0.93;;
5981;SDS011;3018;48.730;9.336;2023-12-20T01:55:00;0.77;;;0.77;;
5981;SDS011;3018;48.730;9.336;2023-12-20T01:57:29;0.80;;;0.80;;
5981;SDS011;3018;48.730;9.336;2023-12-20T01:59:54;0.73;;;0.73;;
5981;SDS011;3018;48.730;9.336;2023-12-20T02:02:21;0.73;;;0.73;;
5981;SDS011;3018;48.730;9.336;2023-12-20T02:04:49;0.63;;;0.63;;
5981;SDS011;3018;48.730;9.336;2023-12-20T02:07:16;0.85;;;0.80;;
5981;SDS011;3018;48.730;9.336;2023-12-20T02:09:42;0.80;;;0.80;;
5981;SDS011;3018;48.730;9.336;2023-12-20T02:12:08;0.88;;;0.65;;
5981;SDS011;3018;48.730;9.336;2023-12-20T02:14:35;0.50;;;0.50;;
5981;SDS011;3018;48.730;9.336;2023-12-20T02:17:01;1.05;;;0.80;;
5981;SDS011;3018;48.730;9.336;2023-12-20T02:19:28;1.55;;;0.75;;
5981;SDS011;3018;48.730;9.336;2023-12-20T02:22:05;1.10;;;0.80;;
5981;SDS011;3018;48.730;9.336;2023-12-20T02:24:32;0.73;;;0.73;;
5981;SDS011;3018;48.730;9.336;2023-12-20T02:26:58;0.90;;;0.90;;
5981;SDS011;3018;48.730;9.336;2023-12-20T02:29:24;0.60;;;0.60;;
5981;SDS011;3018;48.730;9.336;2023-12-20T02:31:51;0.70;;;0.70;;
5981;SDS011;3018;48.730;9.336;2023-12-20T02:34:17;1.15;;;0.60;;
5981;SDS011;3018;48.730;9.336;2023-12-20T02:36:43;0.50;;;0.50;;
5981;SDS011;3018;48.730;9.336;2023-12-20T02:39:11;0.80;;;0.80;;
5981;SDS011;3018;48.730;9.336;2023-12-20T02:41:38;0.70;;;0.70;;
5981;SDS011;3018;48.730;9.336;2023-12-20T02:44:04;0.70;;;0.70;;
5981;SDS011;3018;48.730;9.336;2023-12-20T02:46:30;0.88;;;0.88;;
5981;SDS011;3018;48.730;9.336;2023-12-20T02:48:56;0.70;;;0.70;;
5981;SDS011;3018;48.730;9.336;2023-12-20T02:51:23;0.82;;;0.82;;
5981;SDS011;3018;48.730;9.336;2023-12-20T02:53:49;0.70;;;0.70;;
5981;SDS011;3018;48.730;9.336;2023-12-20T02:56:17;0.70;;;0.70;;
5981;SDS011;3018;48.730;9.336;2023-12-20T02:58:43;1.05;;;0.80;;
5981;SDS011;3018;48.730;9.336;2023-12-20T03:01:09;0.90;;;0.90;;
5981;SDS011;3018;48.730;9.336;2023-12-20T03:03:35;0.80;;;0.80;;
5981;SDS011;3018;48.730;9.336;2023-12-20T03:06:02;1.02;;;1.00;;
5981;SDS011;3018;48.730;9.336;2023-12-20T03:08:28;0.80;;;0.80;;
5981;SDS011;3018;48.730;9.336;2023-12-20T03:10:54;0.93;;;0.93;;
5981;SDS011;3018;48.730;9.336;2023-12-20T03:13:22;2.13;;;0.93;;
5981;SDS011;3018;48.730;9.336;2023-12-20T03:15:48;0.60;;;0.60;;
5981;SDS011;3018;48.730;9.336;2023-12-20T03:18:14;0.77;;;0.60;;
5981;SDS011;3018;48.730;9.336;2023-12-20T03:20:40;0.70;;;0.70;;
5981;SDS011;3018;48.730;9.336;2023-12-20T03:23:07;0.60;;;0.60;;
5981;SDS011;3018;48.730;9.336;2023-12-20T03:25:33;0.80;;;0.80;;
5981;SDS011;3018;48.730;9.336;2023-12-20T03:27:59;1.20;;;1.05;;
5981;SDS011;3018;48.730;9.336;2023-12-20T03:30:27;2.33;;;0.95;;
5981;SDS011;3018;48.730;9.336;2023-12-20T03:32:53;0.85;;;0.85;;
5981;SDS011;3018;48.730;9.336;2023-12-20T03:35:19;0.70;;;0.70;;
5981;SDS011;3018;48.730;9.336;2023-12-20T03:37:46;0.80;;;0.80;;
5981;SDS011;3018;48.730;9.336;2023-12-20T03:40:12;0.95;;;0.95;;
5981;SDS011;3018;48.730;9.336;2023-12-20T03:42:38;0.80;;;0.80;;
5981;SDS011;3018;48.730;9.336;2023-12-20T03:45:05;0.73;;;0.73;;
5981;SDS011;3018;48.730;9.336;2023-12-20T03:47:33;0.77;;;0.77;;
5981;SDS011;3018;48.730;9.336;2023-12-20T03:49:59;0.93;;;0.93;;
5981;SDS011;3018;48.730;9.336;2023-12-20T03:52:25;1.55;;;1.02;;
5981;SDS011;3018;48.730;9.336;2023-12-20T03:54:51;1.30;;;1.10;;
5981;SDS011;3018;48.730;9.336;2023-12-20T03:57:18;1.55;;;1.08;;
5981;SDS011;3018;48.730;9.336;2023-12-20T03:59:44;0.90;;;0.90;;
5981;SDS011;3018;48.730;9.336;2023-12-20T04:02:12;1.17;;;1.10;;
5981;SDS011;3018;48.730;9.336;2023-12-20T04:04:39;1.20;;;1.15;;
5981;SDS011;3018;48.730;9.336;2023-12-20T04:07:05;0.98;;;0.98;;
5981;SDS011;3018;48.730;9.336;2023-12-20T04:09:32;1.10;;;1.10;;
5981;SDS011;3018;48.730;9.336;2023-12-20T04:11:58;1.52;;;1.40;;
5981;SDS011;3018;48.730;9.336;2023-12-20T04:14:24;1.08;;;1.08;;
5981;SDS011;3018;48.730;9.336;2023-12-20T04:16:50;1.00;;;1.00;;
5981;SDS011;3018;48.730;9.336;2023-12-20T04:19:17;0.85;;;0.80;;
5981;SDS011;3018;48.730;9.336;2023-12-20T04:21:44;0.95;;;0.95;;
5981;SDS011;3018;48.730;9.336;2023-12-20T04:24:11;0.80;;;0.80;;
5981;SDS011;3018;48.730;9.336;2023-12-20T04:26:37;1.00;;;1.00;;
5981;SDS011;3018;48.730;9.336;2023-12-20T04:29:03;1.30;;;1.20;;
5981;SDS011;3018;48.730;9.336;2023-12-20T04:31:29;1.27;;;1.17;;
5981;SDS011;3018;48.730;9.336;2023-12-20T04:33:56;1.50;;;1.10;;
5981;SDS011;3018;48.730;9.336;2023-12-20T04:36:22;0.90;;;0.90;;
5981;SDS011;3018;48.730;9.336;2023-12-20T04:38:51;1.00;;;1.00;;
5981;SDS011;3018;48.730;9.336;2023-12-20T04:41:17;0.90;;;0.90;;
5981;SDS011;3018;48.730;9.336;2023-12-20T04:43:44;0.90;;;0.90;;
5981;SDS011;3018;48.730;9.336;2023-12-20T04:46:10;1.33;;;1.33;;
5981;SDS011;3018;48.730;9.336;2023-12-20T04:48:36;1.10;;;1.10;;
5981;SDS011;3018;48.730;9.336;2023-12-20T04:51:03;1.38;;;1.27;;
5981;SDS011;3018;48.730;9.336;2023-12-20T04:53:29;1.70;;;1.70;;
5981;SDS011;3018;48.730;9.336;2023-12-20T04:55:57;1.27;;;1.27;;
5981;SDS011;3018;48.730;9.336;2023-12-20T04:58:23;1.40;;;1.30;;
5981;SDS011;3018;48.730;9.336;2023-12-20T05:00:50;1.33;;;1.30;;
5981;SDS011;3018;48.730;9.336;2023-12-20T05:03:16;1.50;;;1.48;;
5981;SDS011;3018;48.730;9.336;2023-12-20T05:05:43;1.38;;;1.38;;
5981;SDS011;3018;48.730;9.336;2023-12-20T05:08:09;1.58;;;1.48;;
5981;SDS011;3018;48.730;9.336;2023-12-20T05:10:35;1.30;;;1.30;;
5981;SDS011;3018;48.730;9.336;2023-12-20T05:13:03;1.23;;;1.20;;
5981;SDS011;3018;48.730;9.336;2023-12-20T05:15:29;1.23;;;1.23;;
5981;SDS011;3018;48.730;9.336;2023-12-20T05:17:55;1.00;;;1.00;;
5981;SDS011;3018;48.730;9.336;2023-12-20T05:20:21;1.42;;;1.10;;
5981;SDS011;3018;48.730;9.336;2023-12-20T05:22:48;1.40;;;1.40;;
5981;SDS011;3018;48.730;9.336;2023-12-20T05:25:14;2.70;;;1.30;;
5981;SDS011;3018;48.730;9.336;2023-12-20T05:27:40;1.70;;;1.40;;
5981;SDS011;3018;48.730;9.336;2023-12-20T05:30:09;1.67;;;1.20;;
5981;SDS011;3018;48.730;9.336;2023-12-20T05:32:35;1.38;;;1.38;;
5981;SDS011;3018;48.730;9.336;2023-12-20T05:35:02;1.15;;;1.15;;
5981;SDS011;3018;48.730;9.336;2023-12-20T05:37:28;1.90;;;1.30;;
5981;SDS011;3018;48.730;9.336;2023-12-20T05:39:54;0.60;;;0.60;;
5981;SDS011;3018;48.730;9.336;2023-12-20T05:42:20;1.00;;;1.00;;
5981;SDS011;3018;48.730;9.336;2023-12-20T05:44:47;1.02;;;1.02;;
5981;SDS011;3018;48.730;9.336;2023-12-20T05:47:14;2.13;;;1.17;;
5981;SDS011;3018;48.730;9.336;2023-12-20T05:49:41;1.05;;;0.70;;
5981;SDS011;3018;48.730;9.336;2023-12-20T05:52:07;0.80;;;0.80;;
5981;SDS011;3018;48.730;9.336;2023-12-20T05:54:34;0.68;;;0.50;;
5981;SDS011;3018;48.730;9.336;2023-12-20T05:57:00;0.80;;;0.80;;
5981;SDS011;3018;48.730;9.336;2023-12-20T05:59:26;0.68;;;0.68;;
5981;SDS011;3018;48.730;9.336;2023-12-20T06:01:53;2.15;;;0.80;;
5981;SDS011;3018;48.730;9.336;2023-12-20T06:04:20;0.90;;;0.90;;
5981;SDS011;3018;48.730;9.336;2023-12-20T06:06:46;1.20;;;0.90;;
5981;SDS011;3018;48.730;9.336;2023-12-20T06:09:13;1.10;;;0.65;;
5981;SDS011;3018;48.730;9.336;2023-12-20T06:11:40;1.70;;;0.70;;
5981;SDS011;3018;48.730;9.336;2023-12-20T06:14:06;1.00;;;1.00;;
5981;SDS011;3018;48.730;9.336;2023-12-20T06:16:32;1.40;;;0.80;;
5981;SDS011;3018;48.730;9.336;2023-12-20T06:18:58;0.90;;;0.90;;
5981;SDS011;3018;48.730;9.336;2023-12-20T06:21:26;1.50;;;0.80;;
5981;SDS011;3018;48.730;9.336;2023-12-20T06:23:52;0.80;;;0.80;;
5981;SDS011;3018;48.730;9.336;2023-12-20T06:26:18;0.80;;;0.80;;
5981;SDS011;3018;48.730;9.336;2023-12-20T06:28:45;1.00;;;0.93;;
5981;SDS011;3018;48.730;9.336;2023-12-20T06:31:11;0.93;;;0.63;;
5981;SDS011;3018;48.730;9.336;2023-12-20T06:33:37;1.80;;;1.00;;
5981;SDS011;3018;48.730;9.336;2023-12-20T06:36:05;1.00;;;1.00;;
5981;SDS011;3018;48.730;9.336;2023-12-20T06:38:33;2.83;;;0.80;;
5981;SDS011;3018;48.730;9.336;2023-12-20T06:40:59;0.77;;;0.77;;
5981;SDS011;3018;48.730;9.336;2023-12-20T06:43:25;2.38;;;0.80;;
5981;SDS011;3018;48.730;9.336;2023-12-20T06:45:52;2.08;;;1.00;;
5981;SDS011;3018;48.730;9.336;2023-12-20T06:48:18;1.00;;;1.00;;
5981;SDS011;3018;48.730;9.336;2023-12-20T06:50:45;0.80;;;0.80;;
5981;SDS011;3018;48.730;9.336;2023-12-20T06:53:12;1.45;;;1.02;;
5981;SDS011;3018;48.730;9.336;2023-12-20T06:55:39;0.95;;;0.95;;
5981;SDS011;3018;48.730;9.336;2023-12-20T06:58:05;1.27;;;0.90;;
5981;SDS011;3018;48.730;9.336;2023-12-20T07:00:32;1.13;;;0.90;;
5981;SDS011;3018;48.730;9.336;2023-12-20T07:02:58;1.05;;;0.90;;
5981;SDS011;3018;48.730;9.336;2023-12-20T07:05:24;0.68;;;0.68;;
5981;SDS011;3018;48.730;9.336;2023-12-20T07:07:51;1.45;;;0.52;;
5981;SDS011;3018;48.730;9.336;2023-12-20T07:10:18;1.65;;;0.47;;
5981;SDS011;3018;48.730;9.336;2023-12-20T07:12:46;2.35;;;0.70;;
5981;SDS011;3018;48.730;9.336;2023-12-20T07:15:13;1.05;;;0.70;;
5981;SDS011;3018;48.730;9.336;2023-12-20T07:17:40;0.75;;;0.55;;
5981;SDS011;3018;48.730;9.336;2023-12-20T07:20:06;3.60;;;1.30;;
5981;SDS011;3018;48.730;9.336;2023-12-20T07:22:35;0.70;;;0.70;;
5981;SDS011;3018;48.730;9.336;2023-12-20T07:25:02;0.68;;;0.50;;
5981;SDS011;3018;48.730;9.336;2023-12-20T07:27:28;0.40;;;0.40;;
5981;SDS011;3018;48.730;9.336;2023-12-20T07:29:56;0.75;;;0.75;;
5981;SDS011;3018;48.730;9.336;2023-12-20T07:32:22;0.75;;;0.65;;
5981;SDS011;3018;48.730;9.336;2023-12-20T07:34:48;0.70;;;0.70;;
5981;SDS011;3018;48.730;9.336;2023-12-20T07:37:15;1.45;;;0.85;;
5981;SDS011;3018;48.730;9.336;2023-12-20T07:39:41;0.90;;;0.90;;
5981;SDS011;3018;48.730;9.336;2023-12-20T07:42:08;1.48;;;0.80;;
5981;SDS011;3018;48.730;9.336;2023-12-20T07:44:34;1.50;;;1.10;;
5981;SDS011;3018;48.730;9.336;2023-12-20T07:47:03;0.80;;;0.80;;
5981;SDS011;3018;48.730;9.336;2023-12-20T07:49:29;5.03;;;1.10;;
5981;SDS011;3018;48.730;9.336;2023-12-20T07:51:56;3.17;;;0.75;;
5981;SDS011;3018;48.730;9.336;2023-12-20T07:54:22;0.90;;;0.85;;
5981;SDS011;3018;48.730;9.336;2023-12-20T07:56:48;1.05;;;1.05;;
5981;SDS011;3018;48.730;9.336;2023-12-20T07:59:15;1.10;;;1.10;;
5981;SDS011;3018;48.730;9.336;2023-12-20T08:01:41;1.30;;;1.30;;
5981;SDS011;3018;48.730;9.336;2023-12-20T08:04:09;1.25;;;1.15;;
5981;SDS011;3018;48.730;9.336;2023-12-20T08:06:35;4.05;;;1.17;;
5981;SDS011;3018;48.730;9.336;2023-12-20T08:09:01;1.50;;;1.50;;
5981;SDS011;3018;48.730;9.336;2023-12-20T08:11:29;3.25;;;1.35;;
5981;SDS011;3018;48.730;9.336;2023-12-20T08:13:55;1.52;;;1.17;;
5981;SDS011;3018;48.730;9.336;2023-12-20T08:16:22;1.40;;;1.40;;
5981;SDS011;3018;48.730;9.336;2023-12-20T08:18:48;1.10;;;1.10;;
5981;SDS011;3018;48.730;9.336;2023-12-20T08:21:15;1.33;;;1.33;;
5981;SDS011;3018;48.730;9.336;2023-12-20T08:23:44;3.50;;;1.25;;
5981;SDS011;3018;48.730;9.336;2023-12-20T08:26:11;1.20;;;1.20;;
5981;SDS011;3018;48.730;9.336;2023-12-20T08:28:37;1.35;;;1.33;;
5981;SDS011;3018;48.730;9.336;2023-12-20T08:31:03;1.65;;;1.55;;
5981;SDS011;3018;48.730;9.336;2023-12-20T08:33:30;1.60;;;1.50;;
5981;SDS011;3018;48.730;9.336;2023-12-20T08:35:56;1.67;;;1.63;;
5981;SDS011;3018;48.730;9.336;2023-12-20T08:38:24;1.50;;;1.40;;
5981;SDS011;3018;48.730;9.336;2023-12-20T08:40:50;1.27;;;1.27;;
5981;SDS011;3018;48.730;9.336;2023-12-20T08:43:16;2.13;;;1.55;;
5981;SDS011;3018;48.730;9.336;2023-12-20T08:45:43;2.08;;;1.70;;
5981;SDS011;3018;48.730;9.336;2023-12-20T08:48:09;1.67;;;1.50;;
5981;SDS011;3018;48.730;9.336;2023-12-20T08:50:36;2.15;;;1.65;;
5981;SDS011;3018;48.730;9.336;2023-12-20T08:53:02;2.03;;;1.92;;
5981;SDS011;3018;48.730;9.336;2023-12-20T08:55:29;1.80;;;1.70;;
5981;SDS011;3018;48.730;9.336;2023-12-20T08:57:56;1.85;;;1.63;;
5981;SDS011;3018;48.730;9.336;2023-12-20T09:00:22;2.15;;;1.95;;
5981;SDS011;3018;48.730;9.336;2023-12-20T09:02:49;2.20;;;2.10;;
5981;SDS011;3018;48.730;9.336;2023-12-20T09:05:15;3.08;;;2.00;;
5981;SDS011;3018;48.730;9.336;2023-12-20T09:07:41;2.80;;;2.08;;
5981;SDS011;3018;48.730;9.336;2023-12-20T09:10:08;2.22;;;2.08;;
5981;SDS011;3018;48.730;9.336;2023-12-20T09:12:36;3.05;;;2.03;;
5981;SDS011;3018;48.730;9.336;2023-12-20T09:15:04;2.08;;;1.88;;
5981;SDS011;3018;48.730;9.336;2023-12-20T09:17:31;2.03;;;1.85;;
5981;SDS011;3018;48.730;9.336;2023-12-20T09:19:57;1.70;;;1.60;;
5981;SDS011;3018;48.730;9.336;2023-12-20T09:22:25;2.45;;;2.10;;
5981;SDS011;3018;48.730;9.336;2023-12-20T09:24:51;1.60;;;1.60;;
5981;SDS011;3018;48.730;9.336;2023-12-20T09:27:17;2.30;;;1.90;;
5981;SDS011;3018;48.730;9.336;2023-12-20T09:29:45;1.75;;;1.65;;
5981;SDS011;3018;48.730;9.336;2023-12-20T09:32:13;1.98;;;1.88;;
5981;SDS011;3018;48.730;9.336;2023-12-20T09:34:39;2.00;;;1.80;;
5981;SDS011;3018;48.730;9.336;2023-12-20T09:37:06;3.25;;;1.63;;
5981;SDS011;3018;48.730;9.336;2023-12-20T09:39:33;3.38;;;1.95;;
5981;SDS011;3018;48.730;9.336;2023-12-20T09:42:00;1.98;;;1.80;;
5981;SDS011;3018;48.730;9.336;2023-12-20T09:44:26;1.83;;;1.73;;
5981;SDS011;3018;48.730;9.336;2023-12-20T09:46:54;2.65;;;1.70;;
5981;SDS011;3018;48.730;9.336;2023-12-20T09:49:21;5.13;;;1.83;;
5981;SDS011;3018;48.730;9.336;2023-12-20T09:51:48;2.83;;;1.40;;
5981;SDS011;3018;48.730;9.336;2023-12-20T09:54:16;1.63;;;1.48;;
5981;SDS011;3018;48.730;9.336;2023-12-20T09:56:43;3.38;;;1.58;;
5981;SDS011;3018;48.730;9.336;2023-12-20T09:59:09;1.55;;;1.45;;
5981;SDS011;3018;48.730;9.336;2023-12-20T10:01:36;5.50;;;1.45;;
5981;SDS011;3018;48.730;9.336;2023-12-20T10:04:06;2.75;;;1.40;;
5981;SDS011;3018;48.730;9.336;2023-12-20T10:06:34;5.13;;;2.38;;
5981;SDS011;3018;48.730;9.336;2023-12-20T10:09:00;1.63;;;1.50;;
5981;SDS011;3018;48.730;9.336;2023-12-20T10:11:26;2.45;;;1.13;;
5981;SDS011;3018;48.730;9.336;2023-12-20T10:13:58;1.98;;;1.20;;
5981;SDS011;3018;48.730;9.336;2023-12-20T10:16:24;4.60;;;1.25;;
5981;SDS011;3018;48.730;9.336;2023-12-20T10:18:52;5.55;;;1.40;;
5981;SDS011;3018;48.730;9.336;2023-12-20T10:21:20;6.70;;;1.38;;
5981;SDS011;3018;48.730;9.336;2023-12-20T10:23:46;2.17;;;1.10;;
5981;SDS011;3018;48.730;9.336;2023-12-20T10:26:18;4.30;;;1.50;;
5981;SDS011;3018;48.730;9.336;2023-12-20T10:28:45;6.70;;;1.35;;
5981;SDS011;3018;48.730;9.336;2023-12-20T10:31:12;2.22;;;1.38;;
5981;SDS011;3018;48.730;9.336;2023-12-20T10:33:51;4.82;;;0.95;;
5981;SDS011;3018;48.730;9.336;2023-12-20T10:36:17;4.63;;;1.60;;
5981;SDS011;3018;48.730;9.336;2023-12-20T10:38:45;3.33;;;1.00;;
5981;SDS011;3018;48.730;9.336;2023-12-20T10:41:12;2.33;;;1.02;;
5981;SDS011;3018;48.730;9.336;2023-12-20T10:43:42;4.00;;;1.13;;
5981;SDS011;3018;48.730;9.336;2023-12-20T10:46:08;2.78;;;1.33;;
5981;SDS011;3018;48.730;9.336;2023-12-20T10:48:34;3.10;;;1.13;;
5981;SDS011;3018;48.730;9.336;2023-12-20T10:51:02;3.92;;;1.10;;
5981;SDS011;3018;48.730;9.336;2023-12-20T10:53:29;5.00;;;1.20;;
5981;SDS011;3018;48.730;9.336;2023-12-20T10:55:56;6.03;;;1.25;;
5981;SDS011;3018;48.730;9.336;2023-12-20T10:58:26;5.30;;;1.77;;
5981;SDS011;3018;48.730;9.336;2023-12-20T11:00:54;4.55;;;1.17;;
5981;SDS011;3018;48.730;9.336;2023-12-20T11:03:21;3.03;;;1.23;;
5981;SDS011;3018;48.730;9.336;2023-12-20T11:05:50;5.00;;;1.27;;
5981;SDS011;3018;48.730;9.336;2023-12-20T11:08:22;7.72;;;1.58;;
5981;SDS011;3018;48.730;9.336;2023-12-20T11:10:55;4.10;;;1.33;;
5981;SDS011;3018;48.730;9.336;2023-12-20T11:13:26;2.03;;;1.10;;
5981;SDS011;3018;48.730;9.336;2023-12-20T11:15:52;4.90;;;1.38;;
5981;SDS011;3018;48.730;9.336;2023-12-20T11:18:19;1.83;;;0.88;;
5981;SDS011;3018;48.730;9.336;2023-12-20T11:20:45;5.82;;;1.30;;
5981;SDS011;3018;48.730;9.336;2023-12-20T11:23:11;5.93;;;1.20;;
5981;SDS011;3018;48.730;9.336;2023-12-20T11:25:49;1.98;;;1.00;;
5981;SDS011;3018;48.730;9.336;2023-12-20T11:28:15;4.40;;;1.52;;
5981;SDS011;3018;48.730;9.336;2023-12-20T11:30:47;4.07;;;1.15;;
5981;SDS011;3018;48.730;9.336;2023-12-20T11:33:14;5.32;;;1.38;;
5981;SDS011;3018;48.730;9.336;2023-12-20T11:35:41;5.43;;;1.30;;
5981;SDS011;3018;48.730;9.336;2023-12-20T11:38:07;1.98;;;0.93;;
5981;SDS011;3018;48.730;9.336;2023-12-20T11:40:34;3.22;;;1.25;;
5981;SDS011;3018;48.730;9.336;2023-12-20T11:43:00;5.25;;;1.35;;
5981;SDS011;3018;48.730;9.336;2023-12-20T11:45:26;4.13;;;1.25;;
5981;SDS011;3018;48.730;9.336;2023-12-20T11:47:54;3.13;;;1.17;;
5981;SDS011;3018;48.730;9.336;2023-12-20T11:50:20;5.22;;;1.23;;
5981;SDS011;3018;48.730;9.336;2023-12-20T11:52:47;2.15;;;1.25;;
5981;SDS011;3018;48.730;9.336;2023-12-20T11:55:13;7.50;;;1.27;;
5981;SDS011;3018;48.730;9.336;2023-12-20T11:57:39;3.92;;;1.67;;
5981;SDS011;3018;48.730;9.336;2023-12-20T12:00:06;3.17;;;1.45;;
5981;SDS011;3018;48.730;9.336;2023-12-20T12:02:33;1.80;;;1.20;;
5981;SDS011;3018;48.730;9.336;2023-12-20T12:05:00;6.28;;;2.05;;
5981;SDS011;3018;48.730;9.336;2023-12-20T12:07:27;9.80;;;3.72;;
5981;SDS011;3018;48.730;9.336;2023-12-20T12:09:53;4.65;;;2.05;;
5981;SDS011;3018;48.730;9.336;2023-12-20T12:12:19;1.77;;;0.90;;
5981;SDS011;3018;48.730;9.336;2023-12-20T12:14:46;3.75;;;1.30;;
5981;SDS011;3018;48.730;9.336;2023-12-20T12:17:12;3.03;;;1.23;;
5981;SDS011;3018;48.730;9.336;2023-12-20T12:19:39;5.15;;;1.30;;
5981;SDS011;3018;48.730;9.336;2023-12-20T12:22:07;4.03;;;1.35;;
5981;SDS011;3018;48.730;9.336;2023-12-20T12:24:35;5.20;;;1.25;;
5981;SDS011;3018;48.730;9.336;2023-12-20T12:27:02;2.53;;;1.00;;
5981;SDS011;3018;48.730;9.336;2023-12-20T12:29:28;2.58;;;1.40;;
5981;SDS011;3018;48.730;9.336;2023-12-20T12:31:55;2.80;;;1.20;;
5981;SDS011;3018;48.730;9.336;2023-12-20T12:34:21;5.70;;;1.55;;
5981;SDS011;3018;48.730;9.336;2023-12-20T12:36:48;3.45;;;1.30;;
5981;SDS011;3018;48.730;9.336;2023-12-20T12:39:16;5.00;;;1.33;;
5981;SDS011;3018;48.730;9.336;2023-12-20T12:41:43;6.55;;;1.60;;
5981;SDS011;3018;48.730;9.336;2023-12-20T12:44:09;5.63;;;1.23;;
5981;SDS011;3018;48.730;9.336;2023-12-20T12:46:35;5.05;;;1.77;;
5981;SDS011;3018;48.730;9.336;2023-12-20T12:49:02;7.05;;;1.63;;
5981;SDS011;3018;48.730;9.336;2023-12-20T12:51:29;5.22;;;1.30;;
5981;SDS011;3018;48.730;9.336;2023-12-20T12:53:55;7.00;;;1.48;;
5981;SDS011;3018;48.730;9.336;2023-12-20T12:56:22;3.60;;;1.30;;
5981;SDS011;3018;48.730;9.336;2023-12-20T12:58:49;4.32;;;1.42;;
5981;SDS011;3018;48.730;9.336;2023-12-20T13:01:15;4.00;;;1.25;;
5981;SDS011;3018;48.730;9.336;2023-12-20T13:03:41;4.22;;;1.20;;
5981;SDS011;3018;48.730;9.336;2023-12-20T13:06:07;8.75;;;1.58;;
5981;SDS011;3018;48.730;9.336;2023-12-20T13:08:35;3.38;;;1.23;;
5981;SDS011;3018;48.730;9.336;2023-12-20T13:11:01;3.85;;;1.02;;
5981;SDS011;3018;48.730;9.336;2023-12-20T13:13:30;3.78;;;1.23;;
5981;SDS011;3018;48.730;9.336;2023-12-20T13:15:56;5.57;;;1.27;;
5981;SDS011;3018;48.730;9.336;2023-12-20T13:18:23;5.40;;;1.27;;
5981;SDS011;3018;48.730;9.336;2023-12-20T13:20:49;3.95;;;1.27;;
5981;SDS011;3018;48.730;9.336;2023-12-20T13:23:15;4.97;;;1.50;;
5981;SDS011;3018;48.730;9.336;2023-12-20T13:25:43;5.53;;;1.55;;
5981;SDS011;3018;48.730;9.336;2023-12-20T13:28:10;5.03;;;1.30;;
5981;SDS011;3018;48.730;9.336;2023-12-20T13:30:38;6.20;;;1.23;;
5981;SDS011;3018;48.730;9.336;2023-12-20T13:33:04;3.45;;;1.10;;
5981;SDS011;3018;48.730;9.336;2023-12-20T13:35:31;1.45;;;1.35;;
5981;SDS011;3018;48.730;9.336;2023-12-20T13:37:57;2.15;;;1.20;;
5981;SDS011;3018;48.730;9.336;2023-12-20T13:40:23;3.92;;;1.45;;
5981;SDS011;3018;48.730;9.336;2023-12-20T13:42:50;10.27;;;1.75;;
5981;SDS011;3018;48.730;9.336;2023-12-20T13:45:16;5.68;;;1.50;;
5981;SDS011;3018;48.730;9.336;2023-12-20T13:47:44;6.63;;;1.80;;
5981;SDS011;3018;48.730;9.336;2023-12-20T13:50:10;2.67;;;1.15;;
5981;SDS011;3018;48.730;9.336;2023-12-20T13:52:36;7.82;;;1.75;;
5981;SDS011;3018;48.730;9.336;2023-12-20T13:55:02;3.22;;;1.50;;
5981;SDS011;3018;48.730;9.336;2023-12-20T13:57:30;4.95;;;1.30;;
5981;SDS011;3018;48.730;9.336;2023-12-20T13:59:56;5.32;;;1.50;;
5981;SDS011;3018;48.730;9.336;2023-12-20T14:02:23;5.70;;;1.38;;
5981;SDS011;3018;48.730;9.336;2023-12-20T14:04:50;4.43;;;1.40;;
5981;SDS011;3018;48.730;9.336;2023-12-20T14:07:16;3.88;;;1.40;;
5981;SDS011;3018;48.730;9.336;2023-12-20T14:09:43;6.15;;;1.67;;
5981;SDS011;3018;48.730;9.336;2023-12-20T14:12:10;4.53;;;1.30;;
5981;SDS011;3018;48.730;9.336;2023-12-20T14:14:36;2.63;;;1.40;;
5981;SDS011;3018;48.730;9.336;2023-12-20T14:17:03;4.50;;;1.10;;
5981;SDS011;3018;48.730;9.336;2023-12-20T14:19:31;3.33;;;1.23;;
5981;SDS011;3018;48.730;9.336;2023-12-20T14:21:59;5.28;;;1.00;;
5981;SDS011;3018;48.730;9.336;2023-12-20T14:24:27;7.53;;;1.52;;
5981;SDS011;3018;48.730;9.336;2023-12-20T14:26:53;3.80;;;1.20;;
5981;SDS011;3018;48.730;9.336;2023-12-20T14:29:19;3.47;;;1.20;;
5981;SDS011;3018;48.730;9.336;2023-12-20T14:31:45;2.92;;;1.35;;
5981;SDS011;3018;48.730;9.336;2023-12-20T14:34:12;6.18;;;1.20;;
5981;SDS011;3018;48.730;9.336;2023-12-20T14:36:38;3.72;;;1.15;;
5981;SDS011;3018;48.730;9.336;2023-12-20T14:39:06;3.30;;;1.27;;
5981;SDS011;3018;48.730;9.336;2023-12-20T14:41:33;4.18;;;1.42;;
5981;SDS011;3018;48.730;9.336;2023-12-20T14:44:00;4.28;;;1.20;;
5981;SDS011;3018;48.730;9.336;2023-12-20T14:46:29;2.75;;;1.13;;
5981;SDS011;3018;48.730;9.336;2023-12-20T14:48:55;2.90;;;1.23;;
5981;SDS011;3018;48.730;9.336;2023-12-20T14:51:22;2.45;;;1.10;;
5981;SDS011;3018;48.730;9.336;2023-12-20T14:53:49;4.10;;;1.40;;
5981;SDS011;3018;48.730;9.336;2023-12-20T14:56:17;3.92;;;1.23;;
5981;SDS011;3018;48.730;9.336;2023-12-20T14:58:43;3.38;;;1.33;;
5981;SDS011;3018;48.730;9.336;2023-12-20T15:01:09;6.68;;;1.30;;
5981;SDS011;3018;48.730;9.336;2023-12-20T15:03:36;5.35;;;1.20;;
5981;SDS011;3018;48.730;9.336;2023-12-20T15:06:04;7.20;;;1.48;;
5981;SDS011;3018;48.730;9.336;2023-12-20T15:08:31;6.30;;;1.45;;
5981;SDS011;3018;48.730;9.336;2023-12-20T15:10:57;5.00;;;1.30;;